Time;durP1;ratioP1;P1;durP2;ratioP2;P2;SDS_P1;SDS_P2;PMS_P1;PMS_P2;Temp;Humidity;BMP_temperature;BMP_pressure;BME280_temperature;BME280_humidity;BME280_pressure;Samples;Min_cycle;Max_cycle;Signal;HPM_P1;HPM_P2
2022/03/21 00:00:56;;;;;;;;;61.00;47.25;25.30;99.90;;;;;;5026196;28;8839;-77
2022/03/21 00:03:24;;;;;;;;;56.25;43.50;25.30;99.90;;;;;;5041784;28;8725;-80
2022/03/21 00:05:51;;;;;;;;;59.25;46.50;25.40;99.90;;;;;;5041944;28;8752;-81
2022/03/21 00:08:18;;;;;;;;;58.25;46.25;25.40;99.90;;;;;;5025054;28;8768;-81
2022/03/21 00:10:47;;;;;;;;;57.00;44.00;25.50;99.90;;;;;;5041982;28;9008;-81
2022/03/21 00:13:15;;;;;;;;;57.50;46.75;25.40;99.90;;;;;;5042216;28;8745;-81
2022/03/21 00:15:49;;;;;;;;;55.00;43.75;25.40;99.90;;;;;;5042154;28;8941;-80
2022/03/21 00:18:16;;;;;;;;;55.50;44.00;25.50;99.90;;;;;;5037723;28;8783;-80
2022/03/21 00:20:47;;;;;;;;;59.25;48.00;25.50;99.90;;;;;;5038283;28;8738;-81
2022/03/21 00:23:14;;;;;;;;;58.75;45.75;25.60;99.90;;;;;;5038538;28;8755;-80
2022/03/21 00:25:40;;;;;;;;;58.75;47.00;25.70;99.90;;;;;;5038002;28;8719;-81
2022/03/21 00:28:07;;;;;;;;;55.75;43.25;25.80;99.90;;;;;;5038886;28;8715;-81
2022/03/21 00:30:35;;;;;;;;;57.00;43.50;25.80;99.90;;;;;;5020936;28;8755;-81
2022/03/21 00:33:01;;;;;;;;;55.75;45.25;25.90;99.90;;;;;;5071985;28;8733;-81
2022/03/21 00:35:28;;;;;;;;;57.50;46.50;25.90;99.90;;;;;;5040983;28;8721;-86
2022/03/21 00:37:55;;;;;;;;;58.75;44.75;25.90;99.90;;;;;;5075542;28;8775;-81
2022/03/21 00:40:22;;;;;;;;;52.00;42.75;26.00;99.90;;;;;;5057861;28;8789;-81
2022/03/21 00:42:50;;;;;;;;;57.50;45.50;25.90;99.90;;;;;;5041187;28;8775;-82
2022/03/21 00:45:21;;;;;;;;;52.75;44.25;26.00;99.90;;;;;;5041540;28;8771;-81
2022/03/21 00:47:49;;;;;;;;;53.50;41.75;26.20;99.90;;;;;;5041240;28;8761;-82
2022/03/21 00:50:17;;;;;;;;;54.25;43.00;26.20;99.90;;;;;;5057652;28;8791;-78
2022/03/21 00:53:04;;;;;;;;;58.25;44.50;26.20;99.90;;;;;;5041061;28;8749;-81
2022/03/21 00:55:30;;;;;;;;;54.25;41.50;26.10;99.90;;;;;;5075462;28;8778;-81
2022/03/21 00:57:58;;;;;;;;;52.50;41.50;26.20;99.90;;;;;;5041802;28;8842;-81
2022/03/21 01:00:28;;;;;;;;;49.50;37.50;26.30;99.90;;;;;;5024281;28;8773;-81
2022/03/21 01:02:56;;;;;;;;;48.75;40.00;26.30;99.90;;;;;;5024444;28;8831;-81
2022/03/21 01:05:25;;;;;;;;;50.00;40.50;26.30;99.90;;;;;;5040130;28;8757;-82
2022/03/21 01:07:52;;;;;;;;;51.25;41.75;26.40;99.90;;;;;;5041679;28;8767;-81
2022/03/21 01:10:19;;;;;;;;;52.00;43.00;26.40;99.90;;;;;;5040893;28;8785;-82
2022/03/21 01:12:46;;;;;;;;;49.75;42.25;26.50;99.90;;;;;;5056930;28;8768;-82
2022/03/21 01:15:15;;;;;;;;;53.50;41.00;26.40;99.90;;;;;;5024029;28;8769;-82
2022/03/21 01:17:42;;;;;;;;;51.50;41.50;26.50;99.90;;;;;;5040378;28;8760;-82
2022/03/21 01:20:09;;;;;;;;;45.75;36.00;26.60;99.90;;;;;;5056663;28;8780;-87
2022/03/21 01:22:36;;;;;;;;;44.25;36.25;26.70;99.90;;;;;;5040132;28;8769;-82
2022/03/21 01:25:03;;;;;;;;;47.50;37.75;26.70;99.90;;;;;;5040968;28;8756;-82
2022/03/21 01:27:31;;;;;;;;;32.00;25.00;26.80;99.90;;;;;;5023757;28;8769;-81
2022/03/21 01:29:58;;;;;;;;;43.50;36.50;26.80;99.90;;;;;;5040973;28;8773;-82
2022/03/21 01:32:25;;;;;;;;;41.00;35.00;26.90;99.90;;;;;;5056504;28;8757;-82
2022/03/21 01:34:51;;;;;;;;;44.50;33.75;27.00;99.90;;;;;;5040315;28;8763;-83
2022/03/21 01:37:18;;;;;;;;;41.00;36.75;27.00;99.90;;;;;;5040702;28;8744;-80
2022/03/21 01:39:45;;;;;;;;;43.50;37.75;27.10;99.90;;;;;;5039887;28;8793;-81
2022/03/21 01:42:11;;;;;;;;;42.50;34.25;27.20;99.90;;;;;;5056874;28;8771;-81
2022/03/21 01:44:38;;;;;;;;;44.50;36.75;27.30;99.90;;;;;;5039785;28;8780;-81
2022/03/21 01:47:05;;;;;;;;;43.50;36.25;27.40;99.90;;;;;;5039606;28;8764;-86
2022/03/21 01:49:32;;;;;;;;;37.00;33.50;27.50;99.90;;;;;;5022900;28;8767;-81
2022/03/21 01:51:58;;;;;;;;;39.25;32.50;27.50;99.90;;;;;;5057197;28;9373;-82
2022/03/21 01:57:11;;;;;;;;;42.00;35.75;27.60;99.90;;;;;;5044697;28;8761;-82
2022/03/21 01:59:37;;;;;;;;;46.75;36.75;27.70;99.90;;;;;;5039173;28;8808;-82
2022/03/21 02:02:06;;;;;;;;;44.25;36.25;27.80;99.90;;;;;;5056210;28;8809;-87
2022/03/21 02:04:34;;;;;;;;;41.00;33.25;27.80;99.90;;;;;;5039679;28;8753;-82
2022/03/21 02:07:01;;;;;;;;;46.25;36.00;28.00;99.90;;;;;;5056851;28;8940;-82
2022/03/21 02:09:29;;;;;;;;;38.50;33.25;28.10;99.90;;;;;;5039546;28;8759;-82
2022/03/21 02:11:56;;;;;;;;;41.00;35.50;28.10;99.90;;;;;;5039730;28;8811;-82
2022/03/21 02:14:23;;;;;;;;;43.75;34.25;28.20;99.90;;;;;;5055646;28;8782;-80
2022/03/21 02:16:50;;;;;;;;;41.25;34.00;28.20;99.90;;;;;;5056178;28;8777;-82
2022/03/21 02:19:16;;;;;;;;;35.25;32.75;28.30;99.90;;;;;;5040013;28;8805;-81
2022/03/21 02:22:20;;;;;;;;;38.25;33.50;28.40;99.90;;;;;;5073745;28;8737;-79
2022/03/21 02:25:08;;;;;;;;;43.50;36.00;28.50;99.90;;;;;;5073425;28;8746;-82
2022/03/21 02:27:35;;;;;;;;;44.00;37.50;28.50;99.90;;;;;;5055191;28;8772;-82
2022/03/21 02:30:01;;;;;;;;;40.75;33.25;28.60;99.90;;;;;;5055834;28;8771;-82
2022/03/21 02:32:28;;;;;;;;;38.75;34.50;28.70;99.90;;;;;;5038597;28;8761;-80
2022/03/21 02:34:56;;;;;;;;;35.00;32.25;28.70;99.90;;;;;;5022510;28;8761;-87
2022/03/21 02:37:24;;;;;;;;;35.75;32.50;28.70;99.90;;;;;;5023190;28;8722;-82
2022/03/21 02:39:50;;;;;;;;;41.25;34.75;28.70;99.90;;;;;;5039239;28;8793;-82
2022/03/21 02:42:17;;;;;;;;;39.25;35.00;28.80;99.90;;;;;;5039240;28;8795;-82
2022/03/21 02:44:44;;;;;;;;;39.75;34.00;28.90;99.90;;;;;;5039369;28;8879;-83
2022/03/21 02:47:11;;;;;;;;;38.75;33.00;29.10;99.90;;;;;;5039178;28;8753;-82
2022/03/21 02:49:37;;;;;;;;;37.25;31.25;29.20;99.90;;;;;;5038428;28;8975;-82
2022/03/21 02:52:05;;;;;;;;;36.25;31.25;29.20;99.90;;;;;;5039933;28;8733;-82
2022/03/21 02:54:32;;;;;;;;;39.00;32.50;29.20;99.90;;;;;;5038968;28;8737;-81
2022/03/21 02:56:59;;;;;;;;;39.00;33.00;29.20;99.90;;;;;;5038997;28;8776;-82
2022/03/21 02:59:26;;;;;;;;;39.75;32.75;29.30;99.90;;;;;;5055060;28;8784;-81
2022/03/21 03:01:53;;;;;;;;;38.75;33.25;29.40;99.90;;;;;;5039094;28;8744;-79
2022/03/21 03:04:21;;;;;;;;;35.50;31.50;29.40;99.90;;;;;;5023160;28;8774;-81
2022/03/21 03:06:48;;;;;;;;;39.75;31.75;29.50;99.90;;;;;;5022812;28;8772;-82
2022/03/21 03:09:15;;;;;;;;;40.00;32.75;29.40;99.90;;;;;;5022703;28;8760;-82
2022/03/21 03:11:41;;;;;;;;;41.50;33.00;29.40;99.90;;;;;;5024303;28;8760;-82
2022/03/21 03:14:08;;;;;;;;;39.50;34.00;29.50;99.90;;;;;;5042817;28;8757;-82
2022/03/21 03:16:35;;;;;;;;;38.25;33.00;29.50;99.90;;;;;;5059468;28;8760;-78
2022/03/21 03:19:01;;;;;;;;;37.50;32.75;29.60;99.90;;;;;;5043849;28;8780;-81
2022/03/21 03:21:34;;;;;;;;;37.75;32.00;29.80;99.90;;;;;;5059199;28;8741;-81
2022/03/21 03:24:01;;;;;;;;;37.25;33.25;29.80;99.90;;;;;;5026957;28;8745;-81
2022/03/21 03:26:27;;;;;;;;;42.25;33.00;29.90;99.90;;;;;;5026099;28;9432;-81
2022/03/21 03:28:54;;;;;;;;;42.50;33.75;29.90;99.90;;;;;;5042479;28;8764;-82
2022/03/21 03:31:21;;;;;;;;;37.00;31.50;29.90;99.90;;;;;;5042717;28;8849;-80
2022/03/21 03:33:47;;;;;;;;;42.00;34.00;30.00;99.90;;;;;;5025898;28;8799;-81
2022/03/21 03:36:17;;;;;;;;;40.75;35.75;30.00;99.90;;;;;;5042208;28;8846;-81
2022/03/21 03:38:45;;;;;;;;;39.00;33.50;30.10;99.90;;;;;;5043338;28;8807;-82
2022/03/21 03:41:12;;;;;;;;;33.50;31.75;30.20;99.90;;;;;;5042476;28;8788;-81
2022/03/21 03:43:38;;;;;;;;;38.00;31.50;30.20;99.90;;;;;;5025808;28;8741;-85
2022/03/21 03:46:05;;;;;;;;;39.25;33.75;30.30;99.90;;;;;;5026362;28;8729;-79
2022/03/21 03:48:32;;;;;;;;;43.00;34.00;30.30;99.90;;;;;;5042078;28;8753;-80
2022/03/21 03:50:58;;;;;;;;;40.25;33.00;30.30;99.90;;;;;;5042194;28;8749;-79
2022/03/21 03:53:25;;;;;;;;;38.50;30.50;30.40;99.90;;;;;;5076367;28;8733;-81
2022/03/21 03:55:52;;;;;;;;;37.50;31.50;30.40;99.90;;;;;;5076503;28;8753;-82
2022/03/21 03:58:18;;;;;;;;;29.25;28.50;30.30;99.90;;;;;;5025960;28;8736;-81
2022/03/21 04:00:46;;;;;;;;;34.75;30.00;30.30;99.90;;;;;;5058560;28;8740;-80
2022/03/21 04:05:58;;;;;;;;;36.25;32.75;30.40;99.90;;;;;;5047045;28;8749;-79
2022/03/21 04:08:25;;;;;;;;;34.25;29.75;30.20;99.90;;;;;;5025078;28;8748;-79
2022/03/21 04:10:52;;;;;;;;;35.25;31.50;30.00;99.90;;;;;;5042174;28;8771;-79
2022/03/21 04:13:19;;;;;;;;;30.50;29.50;30.20;99.90;;;;;;5042349;28;8756;-80
2022/03/21 04:15:45;;;;;;;;;34.50;30.75;30.30;99.90;;;;;;5058294;28;8740;-79
2022/03/21 04:18:13;;;;;;;;;32.00;30.00;30.30;99.90;;;;;;5057831;28;8761;-79
2022/03/21 04:20:40;;;;;;;;;32.25;28.50;30.40;99.90;;;;;;5058074;28;8776;-79
2022/03/21 04:23:09;;;;;;;;;34.50;31.00;30.50;99.90;;;;;;5024978;28;8749;-79
2022/03/21 04:25:36;;;;;;;;;32.50;28.25;30.60;99.90;;;;;;5042010;28;8769;-83
2022/03/21 04:28:09;;;;;;;;;38.50;32.50;30.70;99.90;;;;;;5025890;28;8779;-78
2022/03/21 04:30:37;;;;;;;;;36.50;32.25;30.60;99.90;;;;;;5040978;28;8910;-79
2022/03/21 04:33:04;;;;;;;;;24.75;24.25;30.60;99.90;;;;;;5041168;28;9005;-78
2022/03/21 04:35:31;;;;;;;;;33.25;30.50;30.50;99.90;;;;;;5041499;28;8753;-78
2022/03/21 04:37:58;;;;;;;;;34.50;31.50;30.60;99.90;;;;;;5057983;28;8923;-77
2022/03/21 04:40:24;;;;;;;;;33.25;29.50;30.50;99.90;;;;;;5057777;28;8919;-82
2022/03/21 04:42:51;;;;;;;;;33.50;29.25;30.50;99.90;;;;;;5025448;28;8814;-78
2022/03/21 04:45:18;;;;;;;;;28.75;27.00;30.60;99.90;;;;;;5057617;28;8788;-80
2022/03/21 04:47:45;;;;;;;;;25.50;24.25;30.60;99.90;;;;;;5057410;28;8773;-79
2022/03/21 04:50:12;;;;;;;;;27.00;23.75;30.80;99.90;;;;;;5041480;28;8753;-80
2022/03/21 04:52:39;;;;;;;;;28.25;26.50;30.90;99.90;;;;;;5057508;28;8756;-83
2022/03/21 04:55:09;;;;;;;;;36.00;32.25;31.10;99.90;;;;;;5041242;28;8887;-82
2022/03/21 04:57:36;;;;;;;;;27.00;22.00;31.20;99.90;;;;;;5041491;28;8788;-83
2022/03/21 05:00:06;;;;;;;;;25.75;24.50;31.00;99.90;;;;;;5040747;28;8891;-82
2022/03/21 05:02:32;;;;;;;;;29.25;28.00;30.90;99.90;;;;;;5074887;28;8803;-82
2022/03/21 05:04:59;;;;;;;;;33.25;30.00;31.10;99.90;;;;;;5057322;28;8796;-83
2022/03/21 05:07:26;;;;;;;;;34.50;29.75;31.00;99.90;;;;;;5040098;28;8768;-87
2022/03/21 05:09:52;;;;;;;;;17.50;17.25;31.10;99.90;;;;;;5057825;28;8749;-82
2022/03/21 05:12:20;;;;;;;;;30.75;29.00;31.20;99.90;;;;;;5040459;28;8863;-82
2022/03/21 05:14:47;;;;;;;;;32.75;30.50;31.30;99.90;;;;;;5040972;28;8753;-82
2022/03/21 05:17:17;;;;;;;;;29.00;27.25;31.50;99.90;;;;;;5040634;28;8800;-83
2022/03/21 05:19:44;;;;;;;;;26.00;24.75;31.80;99.90;;;;;;5024681;28;8777;-83
2022/03/21 05:22:11;;;;;;;;;25.25;22.75;31.90;99.90;;;;;;5041215;28;8860;-83
2022/03/21 05:35:54;;;;;;;;;25.75;25.00;32.20;98.30;;;;;;5059168;28;8880;-83
2022/03/21 05:38:31;;;;;;;;;21.75;20.00;32.30;98.10;;;;;;5027322;28;8892;-83
2022/03/21 05:41:02;;;;;;;;;23.50;21.00;32.50;97.10;;;;;;5040382;28;8890;-83
2022/03/21 05:43:29;;;;;;;;;24.00;23.00;32.60;96.70;;;;;;5040938;28;9451;-82
2022/03/21 05:45:56;;;;;;;;;24.50;22.25;32.60;95.90;;;;;;5040667;28;8765;-77
2022/03/21 05:51:08;;;;;;;;;21.75;19.75;32.60;96.50;;;;;;5044878;28;8966;-83
2022/03/21 05:53:34;;;;;;;;;22.50;19.50;32.80;95.50;;;;;;5039641;28;8795;-83
2022/03/21 05:56:02;;;;;;;;;22.25;20.75;32.80;95.40;;;;;;5039778;28;8964;-79
2022/03/21 05:58:29;;;;;;;;;23.00;19.75;32.80;96.30;;;;;;5039387;28;8741;-83
2022/03/21 06:00:55;;;;;;;;;20.50;20.00;32.90;95.00;;;;;;5056926;28;8760;-83
2022/03/21 06:03:24;;;;;;;;;14.75;14.25;33.00;93.90;;;;;;5055759;28;8768;-75
2022/03/21 06:05:51;;;;;;;;;19.75;18.00;33.10;93.30;;;;;;5023838;28;8769;-83
2022/03/21 06:08:20;;;;;;;;;16.00;14.25;33.10;94.20;;;;;;5056074;28;8874;-81
2022/03/21 06:10:47;;;;;;;;;13.50;13.00;32.90;93.60;;;;;;5023808;28;8749;-82
2022/03/21 06:13:15;;;;;;;;;20.00;18.75;32.70;94.00;;;;;;5040214;28;8740;-88
2022/03/21 06:15:45;;;;;;;;;21.50;21.50;32.50;94.70;;;;;;5040133;28;8737;-82
2022/03/21 06:18:12;;;;;;;;;14.75;13.50;32.50;94.10;;;;;;5040379;28;8745;-82
2022/03/21 06:20:39;;;;;;;;;14.50;11.00;32.50;94.40;;;;;;5039398;28;8796;-82
2022/03/21 06:23:06;;;;;;;;;19.00;18.00;32.40;95.00;;;;;;5022773;28;8744;-82
2022/03/21 06:25:33;;;;;;;;;18.20;18.00;32.40;94.80;;;;;;5039183;28;8744;-82
2022/03/21 06:28:01;;;;;;;;;18.25;17.25;32.40;94.80;;;;;;5039738;28;8745;-85
2022/03/21 06:30:29;;;;;;;;;17.75;16.00;32.30;94.80;;;;;;5022962;28;9532;-82
2022/03/21 06:32:55;;;;;;;;;18.00;15.00;32.50;94.90;;;;;;5055800;28;8863;-82
2022/03/21 06:35:22;;;;;;;;;12.75;12.75;32.50;94.90;;;;;;5055768;28;8891;-81
2022/03/21 06:37:49;;;;;;;;;15.75;14.75;32.40;94.10;;;;;;5039252;28;8765;-81
2022/03/21 06:40:15;;;;;;;;;20.75;15.25;32.20;93.70;;;;;;5036176;28;8905;-82
2022/03/21 06:42:42;;;;;;;;;15.00;15.00;32.10;93.90;;;;;;5019431;28;8971;-81
2022/03/21 06:45:09;;;;;;;;;20.25;16.75;32.10;93.80;;;;;;5020857;28;8835;-81
2022/03/21 06:47:36;;;;;;;;;16.75;15.25;32.20;94.20;;;;;;5039812;28;8766;-81
2022/03/21 06:50:03;;;;;;;;;11.75;11.50;32.40;94.60;;;;;;5006986;28;9475;-81
2022/03/21 06:52:29;;;;;;;;;18.25;17.25;32.40;94.10;;;;;;5039438;28;8739;-81
2022/03/21 06:54:56;;;;;;;;;17.50;16.25;32.20;94.30;;;;;;5024180;28;8798;-78
2022/03/21 06:57:23;;;;;;;;;18.50;17.00;32.10;94.50;;;;;;5006886;28;9099;-81
2022/03/21 06:59:49;;;;;;;;;19.75;18.50;32.10;95.00;;;;;;5022990;28;8759;-81
2022/03/21 07:02:16;;;;;;;;;20.25;18.00;32.10;94.80;;;;;;5039675;28;8979;-81
2022/03/21 07:04:43;;;;;;;;;18.50;18.25;32.10;94.60;;;;;;5023337;28;8754;-81
2022/03/21 07:07:10;;;;;;;;;15.00;15.00;32.10;94.50;;;;;;5040609;28;8746;-82
2022/03/21 07:09:37;;;;;;;;;14.75;14.50;32.00;93.90;;;;;;5039223;28;8913;-81
2022/03/21 07:12:04;;;;;;;;;19.75;17.00;32.00;95.00;;;;;;5022805;28;8816;-82
2022/03/21 07:14:30;;;;;;;;;17.50;15.75;32.00;95.20;;;;;;5022933;28;8827;-81
2022/03/21 07:16:57;;;;;;;;;21.25;20.00;32.00;94.80;;;;;;5039418;28;8766;-82
2022/03/21 07:19:24;;;;;;;;;17.75;17.75;32.00;95.00;;;;;;5023339;28;8743;-82
2022/03/21 07:21:51;;;;;;;;;17.00;16.75;32.00;94.30;;;;;;5023050;28;9615;-87
2022/03/21 07:24:17;;;;;;;;;21.50;17.25;32.00;95.20;;;;;;5055853;28;8765;-81
2022/03/21 07:26:44;;;;;;;;;17.00;15.75;32.10;95.50;;;;;;5039320;28;8722;-81
2022/03/21 07:29:12;;;;;;;;;18.75;16.50;32.30;95.10;;;;;;5056085;28;8772;-82
2022/03/21 07:31:38;;;;;;;;;19.50;18.50;32.30;93.90;;;;;;5034120;28;8764;-81
2022/03/21 07:34:07;;;;;;;;;22.50;20.50;32.50;94.20;;;;;;5020346;28;8898;-82
2022/03/21 07:36:34;;;;;;;;;16.50;14.50;32.60;94.20;;;;;;5022867;28;8763;-81
2022/03/21 07:39:04;;;;;;;;;18.75;17.75;32.70;94.60;;;;;;5006189;28;8823;-82
2022/03/21 07:41:30;;;;;;;;;18.50;17.75;32.80;94.80;;;;;;5033830;28;8774;-81
2022/03/21 07:44:00;;;;;;;;;20.75;19.50;32.80;93.70;;;;;;5022893;28;9527;-81
2022/03/21 07:49:19;;;;;;;;;20.50;17.25;32.80;93.60;;;;;;5041829;28;8734;-78
2022/03/21 07:51:46;;;;;;;;;18.25;16.00;32.70;93.80;;;;;;5056716;28;8799;-87
2022/03/21 07:54:13;;;;;;;;;18.00;17.75;32.90;93.60;;;;;;5022223;28;8765;-81
2022/03/21 07:56:40;;;;;;;;;18.00;14.50;33.10;93.20;;;;;;5053972;28;8796;-82
2022/03/21 07:59:12;;;;;;;;;18.50;17.75;33.10;92.40;;;;;;5055029;28;8809;-82
2022/03/21 08:01:39;;;;;;;;;15.75;14.00;33.10;92.40;;;;;;5055152;28;8868;-82
2022/03/21 08:04:06;;;;;;;;;15.25;14.75;33.20;91.80;;;;;;5056015;28;8770;-82
2022/03/21 08:06:33;;;;;;;;;15.75;13.75;33.20;91.30;;;;;;5021743;28;8754;-82
2022/03/21 08:09:06;;;;;;;;;16.50;14.75;33.20;91.80;;;;;;5038485;28;8789;-82
2022/03/21 08:11:32;;;;;;;;;13.25;11.00;33.20;92.30;;;;;;5038262;28;8766;-81
2022/03/21 08:13:59;;;;;;;;;16.25;15.50;33.10;92.80;;;;;;5054780;28;8777;-82
2022/03/21 08:16:25;;;;;;;;;11.75;11.75;32.80;93.50;;;;;;5038313;28;8969;-79
2022/03/21 08:18:52;;;;;;;;;16.75;16.75;32.40;93.70;;;;;;5039749;28;8793;-83
2022/03/21 08:21:20;;;;;;;;;5.25;5.00;32.20;93.60;;;;;;5021797;28;8782;-81
2022/03/21 08:23:47;;;;;;;;;10.00;10.00;31.20;97.70;;;;;;5054742;28;9018;-82
2022/03/21 08:26:16;;;;;;;;;4.40;4.20;30.00;99.90;;;;;;5054614;28;8828;-81
2022/03/21 08:28:45;;;;;;;;;10.75;6.00;29.10;99.90;;;;;;5054600;28;8779;-82
2022/03/21 08:31:13;;;;;;;;;6.20;5.40;28.50;99.90;;;;;;5055466;28;9492;-82
2022/03/21 08:33:40;;;;;;;;;7.25;6.75;28.10;99.90;;;;;;5054667;28;8734;-89
2022/03/21 08:36:07;;;;;;;;;9.00;9.00;27.60;99.90;;;;;;5054795;28;8780;-80
2022/03/21 08:38:34;;;;;;;;;8.50;7.75;27.50;99.90;;;;;;5021341;28;8785;-83
2022/03/21 08:41:00;;;;;;;;;12.75;9.75;27.50;99.90;;;;;;5054179;28;8805;-83
2022/03/21 08:43:27;;;;;;;;;12.25;8.50;27.50;99.90;;;;;;5054086;28;8819;-81
2022/03/21 08:45:54;;;;;;;;;9.50;6.50;27.70;99.90;;;;;;5056035;28;8744;-83
2022/03/21 08:49:23;;;;;;;;;8.20;7.20;27.80;99.90;;;;;;5037845;28;8782;-79
2022/03/21 08:51:07;;;;;;;;;6.40;5.20;27.90;99.90;;;;;;5040696;28;8854;-82
2022/03/21 08:53:34;;;;;;;;;7.40;7.00;27.80;99.90;;;;;;5054063;28;8904;-82
2022/03/21 08:56:00;;;;;;;;;12.25;11.50;27.50;99.90;;;;;;5021694;28;8756;-82
2022/03/21 08:58:27;;;;;;;;;9.00;7.00;27.50;99.90;;;;;;5037474;28;8742;-82
2022/03/21 09:00:53;;;;;;;;;12.20;9.00;27.90;99.90;;;;;;5021862;28;8734;-83
2022/03/21 09:03:20;;;;;;;;;8.50;7.25;28.10;99.90;;;;;;5053815;28;8785;-82
2022/03/21 09:05:47;;;;;;;;;10.00;9.00;28.00;99.90;;;;;;5037759;28;8765;-82
2022/03/21 09:08:13;;;;;;;;;10.00;9.00;28.00;99.90;;;;;;5036996;28;8757;-82
2022/03/21 09:10:40;;;;;;;;;13.25;9.00;28.10;99.90;;;;;;5053450;28;8738;-82
2022/03/21 09:13:07;;;;;;;;;11.25;8.50;28.20;99.90;;;;;;5037981;28;8750;-82
2022/03/21 09:15:34;;;;;;;;;10.25;9.75;28.40;99.90;;;;;;5021067;28;8738;-87
2022/03/21 09:18:02;;;;;;;;;8.50;6.00;28.60;99.90;;;;;;5017718;28;8791;-79
2022/03/21 09:20:30;;;;;;;;;11.20;10.80;28.80;99.90;;;;;;5001703;28;8786;-82
2022/03/21 09:22:57;;;;;;;;;12.20;10.80;28.80;99.90;;;;;;5018008;28;8910;-83
2022/03/21 09:25:23;;;;;;;;;12.40;11.20;28.80;99.90;;;;;;5018064;28;8768;-83
2022/03/21 09:27:50;;;;;;;;;10.20;9.60;28.80;99.90;;;;;;5018001;28;8752;-83
2022/03/21 09:30:17;;;;;;;;;14.40;11.20;28.70;99.90;;;;;;5017194;28;8795;-82
2022/03/21 09:32:43;;;;;;;;;15.00;12.50;28.70;99.90;;;;;;5011093;28;8740;-83
2022/03/21 09:35:13;;;;;;;;;15.25;12.00;28.70;99.90;;;;;;5017570;28;8760;-83
2022/03/21 09:37:40;;;;;;;;;12.00;11.25;28.70;99.90;;;;;;5017481;28;8757;-79
2022/03/21 09:40:07;;;;;;;;;12.75;11.75;28.70;99.90;;;;;;5019989;28;8783;-82
2022/03/21 09:42:37;;;;;;;;;15.25;13.50;28.80;99.90;;;;;;5036489;28;8754;-83
2022/03/21 09:45:04;;;;;;;;;12.75;12.00;28.90;99.90;;;;;;5020387;28;8840;-83
2022/03/21 09:50:16;;;;;;;;;18.00;14.75;28.90;99.90;;;;;;5025078;28;8762;-83
2022/03/21 09:52:43;;;;;;;;;14.60;12.00;28.90;99.90;;;;;;5020367;28;8736;-83
2022/03/21 09:55:13;;;;;;;;;13.60;12.80;29.00;99.90;;;;;;5020923;28;8835;-84
2022/03/21 09:57:39;;;;;;;;;12.60;12.60;29.10;99.90;;;;;;5020886;28;8731;-83
2022/03/21 10:00:07;;;;;;;;;15.00;12.00;29.20;99.90;;;;;;5019983;28;8801;-83
2022/03/21 10:02:35;;;;;;;;;15.60;14.20;29.10;99.90;;;;;;5032041;28;8855;-79
2022/03/21 10:05:02;;;;;;;;;15.00;13.00;29.20;99.90;;;;;;5040285;28;8761;-83
2022/03/21 10:07:28;;;;;;;;;13.25;11.75;29.20;99.90;;;;;;5039830;28;8884;-83
2022/03/21 10:10:16;;;;;;;;;10.75;10.25;29.30;99.90;;;;;;5024120;28;8728;-76
2022/03/21 10:12:43;;;;;;;;;16.50;14.75;29.40;99.90;;;;;;5024919;28;8741;-82
2022/03/21 10:15:10;;;;;;;;;15.75;13.50;29.40;99.90;;;;;;5023184;28;8741;-83
2022/03/21 10:17:37;;;;;;;;;14.00;12.00;29.50;99.90;;;;;;5023048;28;9151;-82
2022/03/21 10:20:08;;;;;;;;;15.50;13.50;29.40;99.90;;;;;;5038944;28;8784;-83
2022/03/21 10:22:37;;;;;;;;;10.50;9.00;29.40;99.90;;;;;;5040412;28;8730;-82
2022/03/21 10:25:08;;;;;;;;;14.00;12.00;29.30;99.90;;;;;;5056584;28;8745;-83
2022/03/21 10:27:36;;;;;;;;;13.00;13.00;29.40;99.90;;;;;;5023094;28;8798;-83
2022/03/21 10:30:13;;;;;;;;;10.25;8.75;29.40;99.90;;;;;;5056000;28;8759;-82
2022/03/21 10:32:44;;;;;;;;;12.00;12.00;29.30;99.90;;;;;;5039187;28;8733;-83
2022/03/21 10:35:18;;;;;;;;;13.20;11.60;29.30;99.90;;;;;;5056254;28;8752;-82
2022/03/21 10:37:48;;;;;;;;;13.00;12.00;29.20;99.90;;;;;;5039427;28;8793;-82
2022/03/21 10:40:27;;;;;;;;;14.25;13.75;29.10;99.90;;;;;;5054486;28;8838;-82
2022/03/21 10:42:59;;;;;;;;;14.25;12.50;29.00;99.90;;;;;;5036743;28;8739;-82
2022/03/21 10:45:35;;;;;;;;;13.00;13.00;29.10;99.90;;;;;;5036268;28;8747;-82
2022/03/21 10:48:04;;;;;;;;;17.50;13.75;29.10;99.90;;;;;;5037711;28;8773;-82
2022/03/21 10:50:32;;;;;;;;;15.00;11.75;29.00;99.90;;;;;;5003296;28;8759;-82
2022/03/21 10:53:10;;;;;;;;;13.50;12.25;28.90;99.90;;;;;;5019292;28;8762;-82
2022/03/21 10:55:37;;;;;;;;;16.25;14.00;28.90;99.90;;;;;;5035676;28;8790;-82
2022/03/21 10:58:04;;;;;;;;;20.25;14.00;28.90;99.90;;;;;;5054239;28;8737;-82
2022/03/21 11:00:31;;;;;;;;;15.25;15.25;28.80;99.90;;;;;;5035528;28;8727;-82
2022/03/21 11:03:13;;;;;;;;;19.75;14.50;28.90;99.90;;;;;;5019392;28;8751;-75
2022/03/21 11:05:41;;;;;;;;;19.75;16.75;28.90;99.90;;;;;;5019713;28;8789;-83
2022/03/21 11:08:13;;;;;;;;;32.25;28.25;28.80;99.90;;;;;;5019303;28;8785;-82
2022/03/21 11:10:42;;;;;;;;;34.25;28.25;28.80;99.90;;;;;;5019306;28;8750;-82
2022/03/21 11:13:09;;;;;;;;;30.25;27.50;28.70;99.90;;;;;;5013111;28;8719;-82
2022/03/21 11:15:37;;;;;;;;;34.75;30.50;28.70;99.90;;;;;;5019151;28;8762;-82
2022/03/21 11:18:05;;;;;;;;;29.25;23.50;28.70;99.90;;;;;;5053506;28;9141;-88
2022/03/21 11:20:32;;;;;;;;;21.50;20.75;28.70;99.90;;;;;;5002795;28;8770;-82
2022/03/21 11:22:59;;;;;;;;;24.50;21.25;28.70;99.90;;;;;;5003483;28;8769;-82
2022/03/21 11:25:33;;;;;;;;;23.75;20.50;28.70;99.90;;;;;;5018888;28;8723;-81
2022/03/21 11:28:39;;;;;;;;;17.75;15.25;28.70;99.90;;;;;;5004491;28;8696;-82
2022/03/21 11:31:24;;;;;;;;;17.00;17.00;28.60;99.90;;;;;;5035659;28;9198;-82
2022/03/21 11:34:21;;;;;;;;;17.80;16.80;28.50;99.90;;;;;;5019394;28;8757;-82
2022/03/21 11:36:52;;;;;;;;;18.00;16.25;28.50;99.90;;;;;;5003158;28;8764;-82
2022/03/21 11:39:21;;;;;;;;;18.60;18.20;28.60;99.90;;;;;;4987091;28;8910;-81
2022/03/21 11:42:10;;;;;;;;;19.75;17.25;28.50;99.90;;;;;;4998105;28;9216;-82
2022/03/21 11:44:37;;;;;;;;;18.50;13.50;28.50;99.90;;;;;;5020167;28;8807;-82
2022/03/21 11:47:24;;;;;;;;;20.25;16.00;28.40;99.90;;;;;;5043444;28;8762;-81
2022/03/21 11:49:51;;;;;;;;;23.75;18.50;28.30;99.90;;;;;;5023158;28;8762;-78
2022/03/21 11:52:18;;;;;;;;;19.50;16.50;28.20;99.90;;;;;;5022923;28;8848;-81
2022/03/21 11:54:45;;;;;;;;;18.50;16.75;28.20;99.90;;;;;;5039061;28;8850;-79
2022/03/21 11:57:18;;;;;;;;;15.50;12.50;28.20;99.90;;;;;;5039030;28;8762;-82
2022/03/21 11:59:46;;;;;;;;;16.00;15.00;28.20;99.90;;;;;;5055197;28;8786;-82
2022/03/21 12:02:13;;;;;;;;;21.00;18.20;28.10;99.90;;;;;;5055244;28;8777;-81
2022/03/21 12:04:40;;;;;;;;;16.60;16.60;28.00;99.90;;;;;;5056115;28;8746;-82
2022/03/21 12:07:13;;;;;;;;;19.25;16.25;28.10;99.90;;;;;;5022931;28;8734;-82
2022/03/21 12:09:43;;;;;;;;;20.75;19.25;28.00;99.90;;;;;;5055099;28;8783;-81
2022/03/21 12:12:16;;;;;;;;;20.25;17.25;28.00;99.90;;;;;;5055139;28;8766;-82
2022/03/21 12:14:46;;;;;;;;;24.00;19.75;27.90;99.90;;;;;;5022547;28;8778;-78
2022/03/21 12:17:13;;;;;;;;;22.00;19.00;27.80;99.90;;;;;;5022435;28;8762;-82
2022/03/21 12:19:51;;;;;;;;;21.50;19.00;27.90;99.90;;;;;;5056023;28;8769;-81
2022/03/21 12:22:30;;;;;;;;;20.75;19.25;27.90;99.90;;;;;;5055356;28;8737;-81
2022/03/21 12:25:17;;;;;;;;;24.25;22.00;27.80;99.90;;;;;;5056960;28;8765;-82
2022/03/21 12:27:57;;;;;;;;;21.40;18.20;27.80;99.90;;;;;;5041062;28;8913;-81
2022/03/21 12:30:35;;;;;;;;;22.25;18.75;27.90;99.90;;;;;;5038715;28;8758;-78
2022/03/21 12:33:14;;;;;;;;;19.00;18.00;27.90;99.90;;;;;;5054955;28;8778;-82
2022/03/21 12:35:44;;;;;;;;;17.25;17.00;27.90;99.90;;;;;;5056095;28;8769;-86
2022/03/21 12:38:17;;;;;;;;;21.25;19.50;27.90;99.90;;;;;;5054483;28;8829;-81
2022/03/21 12:40:47;;;;;;;;;22.25;20.75;28.00;99.90;;;;;;5058145;28;8797;-82
2022/03/21 12:43:27;;;;;;;;;23.00;23.00;27.80;99.90;;;;;;5058483;28;8733;-75
2022/03/21 12:46:06;;;;;;;;;24.25;18.50;27.80;99.90;;;;;;5058673;28;8755;-82
2022/03/21 12:48:34;;;;;;;;;25.00;22.25;27.70;99.90;;;;;;5055463;28;8759;-82
2022/03/21 12:51:01;;;;;;;;;26.75;21.75;27.80;99.90;;;;;;5037703;28;9197;-82
2022/03/21 12:53:44;;;;;;;;;26.00;23.25;27.70;99.90;;;;;;5021254;28;8755;-81
2022/03/21 12:56:16;;;;;;;;;28.50;21.00;27.70;99.90;;;;;;5021658;28;8825;-82
2022/03/21 12:58:47;;;;;;;;;23.25;20.25;27.70;99.90;;;;;;5021398;28;8765;-81
2022/03/21 13:01:14;;;;;;;;;18.50;17.00;27.70;99.90;;;;;;5024117;28;8828;-82
2022/03/21 13:03:41;;;;;;;;;21.75;20.50;27.60;99.90;;;;;;5041059;28;9433;-82
2022/03/21 13:11:33;;;;;;;;;26.50;22.50;27.60;99.90;;;;;;5044203;28;8787;-82
2022/03/21 13:14:00;;;;;;;;;21.50;20.00;27.50;99.90;;;;;;5041078;28;8780;-82
2022/03/21 13:16:28;;;;;;;;;28.50;22.50;27.50;99.90;;;;;;5056858;28;8886;-80